sensor_id;sensor_type;location;lat;lon;timestamp;pressure;altitude;pressure_sealevel;temperature;humidity
43681;BME280;29281;50.356;30.894;2023-02-11T03:30:26;101418.80;;;0.35;86.05
43681;BME280;29281;50.356;30.894;2023-02-11T03:31:33;101417.06;;;0.33;86.76
43681;BME280;29281;50.356;30.894;2023-02-11T03:32:37;101416.18;;;0.35;86.61
43681;BME280;29281;50.356;30.894;2023-02-11T03:34:59;101417.98;;;0.30;87.52
43681;BME280;29281;50.356;30.894;2023-02-11T03:36:04;101418.85;;;0.29;88.05
43681;BME280;29281;50.356;30.894;2023-02-11T03:37:09;101409.30;;;0.24;87.92
43681;BME280;29281;50.356;30.894;2023-02-11T03:38:13;101411.89;;;0.30;87.76
43681;BME280;29281;50.356;30.894;2023-02-11T03:39:23;101403.22;;;0.20;87.94
43681;BME280;29281;50.356;30.894;2023-02-11T03:40:35;101399.74;;;0.18;88.20
43681;BME280;29281;50.356;30.894;2023-02-11T03:41:36;101413.64;;;0.28;88.40
43681;BME280;29281;50.356;30.894;2023-02-11T03:42:43;101408.33;;;0.39;87.06
43681;BME280;29281;50.356;30.894;2023-02-11T03:43:51;101407.45;;;0.40;87.20
43681;BME280;29281;50.356;30.894;2023-02-11T03:44:56;101400.67;;;0.13;88.31
43681;BME280;29281;50.356;30.894;2023-02-11T03:46:01;101395.35;;;0.26;88.87
43681;BME280;29281;50.356;30.894;2023-02-11T03:48:39;101393.61;;;0.25;88.38
43681;BME280;29281;50.356;30.894;2023-02-11T03:49:39;101384.03;;;0.26;88.72
43681;BME280;29281;50.356;30.894;2023-02-11T03:50:47;101385.80;;;0.22;89.19
43681;BME280;29281;50.356;30.894;2023-02-11T03:51:51;101395.35;;;0.26;89.21
43681;BME280;29281;50.356;30.894;2023-02-11T03:52:56;101386.69;;;0.17;89.28
43681;BME280;29281;50.356;30.894;2023-02-11T03:54:01;101391.11;;;0.09;90.01
43681;BME280;29281;50.356;30.894;2023-02-11T03:55:09;101381.55;;;0.03;90.48
43681;BME280;29281;50.356;30.894;2023-02-11T03:56:12;101391.91;;;0.18;90.06
43681;BME280;29281;50.356;30.894;2023-02-11T03:57:20;101386.73;;;0.14;90.14
43681;BME280;29281;50.356;30.894;2023-02-11T03:58:23;101383.30;;;0.03;90.79
43681;BME280;29281;50.356;30.894;2023-02-11T03:59:27;101386.83;;;-0.02;91.12
43681;BME280;29281;50.356;30.894;2023-02-11T04:00:34;101385.95;;;-0.02;91.32
43681;BME280;29281;50.356;30.894;2023-02-11T04:01:39;101372.93;;;-0.10;91.52
43681;BME280;29281;50.356;30.894;2023-02-11T04:02:42;101368.49;;;0.05;91.87
43681;BME280;29281;50.356;30.894;2023-02-11T04:03:46;101377.19;;;0.08;91.07
43681;BME280;29281;50.356;30.894;2023-02-11T04:04:49;101368.55;;;0.00;91.65
43681;BME280;29281;50.356;30.894;2023-02-11T04:05:53;101366.81;;;-0.04;92.44
43681;BME280;29281;50.356;30.894;2023-02-11T04:06:56;101375.51;;;-0.01;92.16
43681;BME280;29281;50.356;30.894;2023-02-11T04:08:03;101372.84;;;0.06;92.06
43681;BME280;29281;50.356;30.894;2023-02-11T04:09:06;101375.45;;;0.07;91.66
43681;BME280;29281;50.356;30.894;2023-02-11T04:10:11;101368.50;;;0.03;91.97
43681;BME280;29281;50.356;30.894;2023-02-11T04:11:15;101370.20;;;0.10;92.15
43681;BME280;29281;50.356;30.894;2023-02-11T04:12:21;101371.88;;;0.19;92.35
43681;BME280;29281;50.356;30.894;2023-02-11T04:13:25;101369.22;;;0.28;91.85
43681;BME280;29281;50.356;30.894;2023-02-11T04:14:29;101366.55;;;0.32;91.87
43681;BME280;29281;50.356;30.894;2023-02-11T04:15:32;101366.52;;;0.39;91.48
43681;BME280;29281;50.356;30.894;2023-02-11T04:16:35;101370.88;;;0.37;91.43
43681;BME280;29281;50.356;30.894;2023-02-11T04:17:39;101364.77;;;0.39;91.53
43681;BME280;29281;50.356;30.894;2023-02-11T04:18:42;101368.22;;;0.46;91.60
43681;BME280;29281;50.356;30.894;2023-02-11T04:19:46;101365.53;;;0.52;90.73
43681;BME280;29281;50.356;30.894;2023-02-11T04:20:51;101368.92;;;0.61;90.42
43681;BME280;29281;50.356;30.894;2023-02-11T04:21:54;101358.46;;;0.63;90.53
43681;BME280;29281;50.356;30.894;2023-02-11T04:22:58;101367.28;;;0.51;90.64
43681;BME280;29281;50.356;30.894;2023-02-11T04:24:01;101360.34;;;0.47;90.72
43681;BME280;29281;50.356;30.894;2023-02-11T04:25:05;101371.60;;;0.57;90.11
43681;BME280;29281;50.356;30.894;2023-02-11T04:26:11;101361.09;;;0.61;90.18
43681;BME280;29281;50.356;30.894;2023-02-11T04:27:15;101367.27;;;0.53;90.06
43681;BME280;29281;50.356;30.894;2023-02-11T04:28:20;101363.89;;;0.40;91.10
43681;BME280;29281;50.356;30.894;2023-02-11T04:29:23;101380.30;;;0.60;90.89
43681;BME280;29281;50.356;30.894;2023-02-11T04:30:27;101370.63;;;0.67;90.38
43681;BME280;29281;50.356;30.894;2023-02-11T04:31:31;101375.89;;;0.62;89.91
43681;BME280;29281;50.356;30.894;2023-02-11T04:32:34;101371.72;;;0.43;91.01
43681;BME280;29281;50.356;30.894;2023-02-11T04:33:38;101370.13;;;0.19;92.60
43681;BME280;29281;50.356;30.894;2023-02-11T04:34:41;101373.57;;;0.29;93.09
43681;BME280;29281;50.356;30.894;2023-02-11T04:35:47;101374.34;;;0.42;92.07
43681;BME280;29281;50.356;30.894;2023-02-11T04:36:51;101365.53;;;0.53;91.22
43681;BME280;29281;50.356;30.894;2023-02-11T04:37:54;101366.42;;;0.49;91.44
43681;BME280;29281;50.356;30.894;2023-02-11T04:38:57;101369.02;;;0.52;91.75
43681;BME280;29281;50.356;30.894;2023-02-11T04:40:00;101369.77;;;0.66;91.12
43681;BME280;29281;50.356;30.894;2023-02-11T04:41:03;101363.55;;;0.78;90.52
43681;BME280;29281;50.356;30.894;2023-02-11T04:42:06;101364.36;;;0.86;89.41
43681;BME280;29281;50.356;30.894;2023-02-11T04:43:08;101366.17;;;0.77;89.28
43681;BME280;29281;50.356;30.894;2023-02-11T04:44:13;101367.09;;;0.76;90.17
43681;BME280;29281;50.356;30.894;2023-02-11T04:45:15;101358.39;;;0.72;90.45
43681;BME280;29281;50.356;30.894;2023-02-11T04:46:19;101366.98;;;0.85;89.62
43681;BME280;29281;50.356;30.894;2023-02-11T04:47:23;101366.09;;;0.87;89.01
43681;BME280;29281;50.356;30.894;2023-02-11T04:48:27;101362.59;;;0.90;88.94
43681;BME280;29281;50.356;30.894;2023-02-11T04:49:32;101354.77;;;0.87;89.14
43681;BME280;29281;50.356;30.894;2023-02-11T04:50:39;101355.64;;;0.87;89.29
43681;BME280;29281;50.356;30.894;2023-02-11T04:51:43;101345.20;;;0.84;89.45
43681;BME280;29281;50.356;30.894;2023-02-11T04:52:51;101348.69;;;0.85;89.84
43681;BME280;29281;50.356;30.894;2023-02-11T04:53:54;101341.86;;;0.70;90.08
43681;BME280;29281;50.356;30.894;2023-02-11T04:54:58;101342.74;;;0.67;91.00
43681;BME280;29281;50.356;30.894;2023-02-11T04:56:01;101341.09;;;0.60;91.68
43681;BME280;29281;50.356;30.894;2023-02-11T04:57:05;101341.96;;;0.59;91.47
43681;BME280;29281;50.356;30.894;2023-02-11T04:58:09;101335.00;;;0.58;91.75
43681;BME280;29281;50.356;30.894;2023-02-11T04:59:13;101343.72;;;0.57;91.60
43681;BME280;29281;50.356;30.894;2023-02-11T05:00:17;101334.95;;;0.61;91.59
43681;BME280;29281;50.356;30.894;2023-02-11T05:01:23;101336.66;;;0.65;90.88
43681;BME280;29281;50.356;30.894;2023-02-11T05:02:31;101331.42;;;0.67;91.50
43681;BME280;29281;50.356;30.894;2023-02-11T05:03:38;101335.80;;;0.63;91.24
43681;BME280;29281;50.356;30.894;2023-02-11T05:04:49;101332.37;;;0.60;91.46
43681;BME280;29281;50.356;30.894;2023-02-11T05:05:49;101325.43;;;0.56;91.54
43681;BME280;29281;50.356;30.894;2023-02-11T05:06:54;101319.31;;;0.58;91.43
43681;BME280;29281;50.356;30.894;2023-02-11T05:07:59;101335.06;;;0.49;91.99
43681;BME280;29281;50.356;30.894;2023-02-11T05:09:03;101330.68;;;0.53;92.24
43681;BME280;29281;50.356;30.894;2023-02-11T05:10:07;101330.64;;;0.59;92.18
43681;BME280;29281;50.356;30.894;2023-02-11T05:11:16;101326.28;;;0.59;92.04
43681;BME280;29281;50.356;30.894;2023-02-11T05:12:20;101328.05;;;0.54;92.47
43681;BME280;29281;50.356;30.894;2023-02-11T05:13:23;101322.80;;;0.57;92.60
43681;BME280;29281;50.356;30.894;2023-02-11T05:14:26;101331.52;;;0.58;91.85
43681;BME280;29281;50.356;30.894;2023-02-11T05:15:29;101328.97;;;0.47;92.66
43681;BME280;29281;50.356;30.894;2023-02-11T05:16:32;101327.23;;;0.48;92.78
43681;BME280;29281;50.356;30.894;2023-02-11T05:17:36;101328.94;;;0.53;93.02
43681;BME280;29281;50.356;30.894;2023-02-11T05:18:40;101328.94;;;0.53;93.47
43681;BME280;29281;50.356;30.894;2023-02-11T05:19:44;101333.25;;;0.59;93.38
43681;BME280;29281;50.356;30.894;2023-02-11T05:20:47;101329.91;;;0.43;93.89
43681;BME280;29281;50.356;30.894;2023-02-11T05:21:51;101327.23;;;0.46;94.27
43681;BME280;29281;50.356;30.894;2023-02-11T05:22:57;101328.03;;;0.57;93.75
43681;BME280;29281;50.356;30.894;2023-02-11T05:24:00;101328.05;;;0.56;93.89
43681;BME280;29281;50.356;30.894;2023-02-11T05:25:04;101320.18;;;0.59;93.91
43681;BME280;29281;50.356;30.894;2023-02-11T05:26:08;101318.29;;;0.75;93.39
43681;BME280;29281;50.356;30.894;2023-02-11T05:27:13;101327.72;;;0.89;92.08
43681;BME280;29281;50.356;30.894;2023-02-11T05:28:17;101326.77;;;0.95;91.83
43681;BME280;29281;50.356;30.894;2023-02-11T05:29:20;101322.31;;;1.06;90.89
43681;BME280;29281;50.356;30.894;2023-02-11T05:30:23;101331.85;;;1.09;90.62
43681;BME280;29281;50.356;30.894;2023-02-11T05:31:28;101331.95;;;1.01;90.39
43681;BME280;29281;50.356;30.894;2023-02-11T05:32:30;101329.34;;;1.01;90.85
43681;BME280;29281;50.356;30.894;2023-02-11T05:33:37;101330.20;;;1.01;90.94
43681;BME280;29281;50.356;30.894;2023-02-11T05:34:40;101332.89;;;0.92;91.39
43681;BME280;29281;50.356;30.894;2023-02-11T05:35:43;101333.69;;;1.02;91.16
43681;BME280;29281;50.356;30.894;2023-02-11T05:36:47;101332.81;;;1.03;91.23
43681;BME280;29281;50.356;30.894;2023-02-11T05:37:50;101329.36;;;0.98;91.85
43681;BME280;29281;50.356;30.894;2023-02-11T05:38:55;101325.02;;;0.97;91.66
43681;BME280;29281;50.356;30.894;2023-02-11T05:39:58;101323.19;;;1.07;91.48
43681;BME280;29281;50.356;30.894;2023-02-11T05:41:03;101328.49;;;0.97;91.64
43681;BME280;29281;50.356;30.894;2023-02-11T05:42:06;101327.55;;;1.06;91.00
43681;BME280;29281;50.356;30.894;2023-02-11T05:43:11;101333.70;;;1.00;91.12
43681;BME280;29281;50.356;30.894;2023-02-11T05:44:15;101327.63;;;0.97;91.74
43681;BME280;29281;50.356;30.894;2023-02-11T05:45:18;101318.19;;;0.82;92.26
43681;BME280;29281;50.356;30.894;2023-02-11T05:46:26;101317.14;;;1.00;92.01
43681;BME280;29281;50.356;30.894;2023-02-11T05:47:30;101321.36;;;1.12;91.74
43681;BME280;29281;50.356;30.894;2023-02-11T05:48:33;101323.97;;;1.12;91.09
43681;BME280;29281;50.356;30.894;2023-02-11T05:49:37;101322.16;;;1.20;90.69
43681;BME280;29281;50.356;30.894;2023-02-11T05:50:40;101313.31;;;1.28;90.30
43681;BME280;29281;50.356;30.894;2023-02-11T05:51:45;101319.40;;;1.30;89.90
43681;BME280;29281;50.356;30.894;2023-02-11T05:52:48;101313.31;;;1.28;89.83
43681;BME280;29281;50.356;30.894;2023-02-11T05:53:51;101314.15;;;1.32;89.51
43681;BME280;29281;50.356;30.894;2023-02-11T05:54:55;101314.16;;;1.30;89.37
43681;BME280;29281;50.356;30.894;2023-02-11T05:55:58;101305.37;;;1.37;89.08
43681;BME280;29281;50.356;30.894;2023-02-11T05:57:00;101313.11;;;1.45;88.67
43681;BME280;29281;50.356;30.894;2023-02-11T05:58:06;101308.63;;;1.53;88.37
43681;BME280;29281;50.356;30.894;2023-02-11T05:59:11;101311.20;;;1.56;87.95
43681;BME280;29281;50.356;30.894;2023-02-11T06:00:17;101313.12;;;1.44;88.09
43681;BME280;29281;50.356;30.894;2023-02-11T06:01:20;101309.97;;;1.17;89.04
43681;BME280;29281;50.356;30.894;2023-02-11T06:02:24;101308.30;;;1.10;89.89
43681;BME280;29281;50.356;30.894;2023-02-11T06:03:28;101316.99;;;1.12;89.52
43681;BME280;29281;50.356;30.894;2023-02-11T06:04:36;101310.74;;;1.24;89.60
43681;BME280;29281;50.356;30.894;2023-02-11T06:05:41;101314.24;;;1.23;89.37
43681;BME280;29281;50.356;30.894;2023-02-11T06:06:46;101317.84;;;1.14;89.24
43681;BME280;29281;50.356;30.894;2023-02-11T06:07:50;101306.45;;;1.20;89.38
43681;BME280;29281;50.356;30.894;2023-02-11T06:08:57;101304.63;;;1.25;89.96
43681;BME280;29281;50.356;30.894;2023-02-11T06:10:03;101306.94;;;1.51;88.76
43681;BME280;29281;50.356;30.894;2023-02-11T06:11:08;101305.03;;;1.62;87.18
43681;BME280;29281;50.356;30.894;2023-02-11T06:12:11;101304.89;;;1.71;86.69
43681;BME280;29281;50.356;30.894;2023-02-11T06:13:15;101311.73;;;1.83;85.73
43681;BME280;29281;50.356;30.894;2023-02-11T06:14:19;101303.08;;;1.76;85.75
43681;BME280;29281;50.356;30.894;2023-02-11T06:15:21;101293.48;;;1.76;85.62
43681;BME280;29281;50.356;30.894;2023-02-11T06:16:24;101299.45;;;1.85;85.38
43681;BME280;29281;50.356;30.894;2023-02-11T06:17:28;101294.92;;;1.97;85.23
43681;BME280;29281;50.356;30.894;2023-02-11T06:18:35;101281.84;;;1.96;84.70
43681;BME280;29281;50.356;30.894;2023-02-11T06:19:38;101275.70;;;1.98;84.37
43681;BME280;29281;50.356;30.894;2023-02-11T06:20:42;101276.69;;;1.90;84.52
43681;BME280;29281;50.356;30.894;2023-02-11T06:21:46;101270.46;;;1.98;84.23
43681;BME280;29281;50.356;30.894;2023-02-11T06:22:49;101269.44;;;2.07;83.49
43681;BME280;29281;50.356;30.894;2023-02-11T06:23:51;101274.06;;;1.90;84.63
43681;BME280;29281;50.356;30.894;2023-02-11T06:24:54;101264.88;;;2.18;83.67
43681;BME280;29281;50.356;30.894;2023-02-11T06:26:00;101269.74;;;2.41;82.04
43681;BME280;29281;50.356;30.894;2023-02-11T06:27:03;101267.98;;;2.41;81.40
43681;BME280;29281;50.356;30.894;2023-02-11T06:28:08;101261.75;;;2.47;80.61
43681;BME280;29281;50.356;30.894;2023-02-11T06:29:11;101266.08;;;2.50;80.94
43681;BME280;29281;50.356;30.894;2023-02-11T06:30:16;101256.33;;;2.58;80.09
43681;BME280;29281;50.356;30.894;2023-02-11T06:31:20;101271.20;;;2.57;79.62
43681;BME280;29281;50.356;30.894;2023-02-11T06:32:25;101259.47;;;2.29;80.33
43681;BME280;29281;50.356;30.894;2023-02-11T06:33:29;101262.74;;;2.41;80.55
43681;BME280;29281;50.356;30.894;2023-02-11T06:34:33;101265.21;;;2.49;80.42
43681;BME280;29281;50.356;30.894;2023-02-11T06:35:38;101263.38;;;2.54;80.61
43681;BME280;29281;50.356;30.894;2023-02-11T06:36:41;101250.20;;;2.59;80.08
43681;BME280;29281;50.356;30.894;2023-02-11T06:37:45;101263.97;;;2.70;79.79
43681;BME280;29281;50.356;30.894;2023-02-11T06:38:51;101259.34;;;2.82;79.19
43681;BME280;29281;50.356;30.894;2023-02-11T06:39:55;101261.78;;;2.92;78.44
43681;BME280;29281;50.356;30.894;2023-02-11T06:40:57;101252.61;;;2.69;78.41
43681;BME280;29281;50.356;30.894;2023-02-11T06:42:00;101252.44;;;2.29;80.26
43681;BME280;29281;50.356;30.894;2023-02-11T06:43:04;101255.61;;;2.48;80.53
43681;BME280;29281;50.356;30.894;2023-02-11T06:44:08;101247.15;;;2.80;79.37
43681;BME280;29281;50.356;30.894;2023-02-11T06:45:12;101250.39;;;2.93;77.72
43681;BME280;29281;50.356;30.894;2023-02-11T06:46:16;101243.10;;;3.07;77.12
43681;BME280;29281;50.356;30.894;2023-02-11T06:47:20;101248.55;;;2.98;76.89
43681;BME280;29281;50.356;30.894;2023-02-11T06:48:23;101245.06;;;2.97;77.11
43681;BME280;29281;50.356;30.894;2023-02-11T06:49:26;101245.92;;;3.39;76.15
43681;BME280;29281;50.356;30.894;2023-02-11T06:50:30;101243.81;;;3.55;74.77
43681;BME280;29281;50.356;30.894;2023-02-11T06:51:34;101242.02;;;3.57;74.32
43681;BME280;29281;50.356;30.894;2023-02-11T06:52:37;101241.83;;;3.66;74.45
43681;BME280;29281;50.356;30.894;2023-02-11T06:53:42;101232.73;;;3.81;74.32
43681;BME280;29281;50.356;30.894;2023-02-11T06:54:45;101240.87;;;3.69;73.67
43681;BME280;29281;50.356;30.894;2023-02-11T06:55:49;101238.91;;;3.78;73.87
43681;BME280;29281;50.356;30.894;2023-02-11T06:56:53;101235.39;;;3.79;73.48
43681;BME280;29281;50.356;30.894;2023-02-11T06:57:56;101235.89;;;3.95;73.00
43681;BME280;29281;50.356;30.894;2023-02-11T06:58:59;101240.91;;;4.04;72.66
43681;BME280;29281;50.356;30.894;2023-02-11T07:00:03;101235.79;;;3.98;72.37
43681;BME280;29281;50.356;30.894;2023-02-11T07:01:08;101234.75;;;3.68;73.32
43681;BME280;29281;50.356;30.894;2023-02-11T07:02:12;101232.48;;;3.53;73.44
43681;BME280;29281;50.356;30.894;2023-02-11T07:03:15;101231.61;;;3.52;73.83
43681;BME280;29281;50.356;30.894;2023-02-11T07:04:19;101222.42;;;3.72;73.14
43681;BME280;29281;50.356;30.894;2023-02-11T07:05:22;101226.51;;;3.83;72.73
43681;BME280;29281;50.356;30.894;2023-02-11T07:06:26;101222.77;;;3.57;72.89
43681;BME280;29281;50.356;30.894;2023-02-11T07:07:31;101217.58;;;3.53;73.20
43681;BME280;29281;50.356;30.894;2023-02-11T07:08:36;101213.10;;;3.59;73.10
43681;BME280;29281;50.356;30.894;2023-02-11T07:09:39;101217.16;;;3.72;72.67
43681;BME280;29281;50.356;30.894;2023-02-11T07:10:43;101204.61;;;3.47;73.90
43681;BME280;29281;50.356;30.894;2023-02-11T07:11:47;101207.39;;;3.78;73.01
43681;BME280;29281;50.356;30.894;2023-02-11T07:12:50;101214.17;;;3.87;71.64
43681;BME280;29281;50.356;30.894;2023-02-11T07:13:56;101206.75;;;3.30;72.91
43681;BME280;29281;50.356;30.894;2023-02-11T07:14:59;101192.72;;;3.31;75.02
43681;BME280;29281;50.356;30.894;2023-02-11T07:16:06;101200.09;;;3.52;73.19
43681;BME280;29281;50.356;30.894;2023-02-11T07:17:10;101207.36;;;3.80;72.02
43681;BME280;29281;50.356;30.894;2023-02-11T07:18:14;101204.18;;;4.01;71.65
43681;BME280;29281;50.356;30.894;2023-02-11T07:19:18;101200.37;;;3.79;72.13
43681;BME280;29281;50.356;30.894;2023-02-11T07:20:21;101199.99;;;3.94;71.50
43681;BME280;29281;50.356;30.894;2023-02-11T07:21:25;101200.08;;;4.25;70.48
43681;BME280;29281;50.356;30.894;2023-02-11T07:22:28;101195.36;;;4.04;70.18
43681;BME280;29281;50.356;30.894;2023-02-11T07:23:31;101195.04;;;4.16;70.13
43681;BME280;29281;50.356;30.894;2023-02-11T07:24:36;101193.52;;;4.41;69.18
43681;BME280;29281;50.356;30.894;2023-02-11T07:25:40;101177.80;;;4.71;68.42
43681;BME280;29281;50.356;30.894;2023-02-11T07:26:45;101186.23;;;4.82;67.58
43681;BME280;29281;50.356;30.894;2023-02-11T07:27:48;101187.49;;;4.69;67.32
43681;BME280;29281;50.356;30.894;2023-02-11T07:28:55;101194.56;;;4.67;67.16
43681;BME280;29281;50.356;30.894;2023-02-11T07:29:58;101195.80;;;4.21;68.54
43681;BME280;29281;50.356;30.894;2023-02-11T07:31:05;101187.41;;;3.71;70.13
43681;BME280;29281;50.356;30.894;2023-02-11T07:32:12;101192.02;;;3.62;70.84
43681;BME280;29281;50.356;30.894;2023-02-11T07:33:18;101194.05;;;3.86;70.14
43681;BME280;29281;50.356;30.894;2023-02-11T07:34:22;101194.05;;;3.86;69.99
43681;BME280;29281;50.356;30.894;2023-02-11T07:35:27;101201.23;;;3.79;70.49
43681;BME280;29281;50.356;30.894;2023-02-11T07:36:31;101204.13;;;3.67;70.84
43681;BME280;29281;50.356;30.894;2023-02-11T07:37:35;101200.83;;;3.59;71.15
43681;BME280;29281;50.356;30.894;2023-02-11T07:38:38;101198.59;;;3.42;71.69
43681;BME280;29281;50.356;30.894;2023-02-11T07:39:41;101202.50;;;3.63;71.56
43681;BME280;29281;50.356;30.894;2023-02-11T07:40:45;101197.41;;;3.56;71.69
43681;BME280;29281;50.356;30.894;2023-02-11T07:41:49;101199.50;;;3.78;70.95
43681;BME280;29281;50.356;30.894;2023-02-11T07:42:52;101195.31;;;3.70;70.65
43681;BME280;29281;50.356;30.894;2023-02-11T07:43:54;101186.97;;;3.52;71.35
43681;BME280;29281;50.356;30.894;2023-02-11T07:44:58;101195.48;;;3.64;71.08
43681;BME280;29281;50.356;30.894;2023-02-11T07:46:06;101186.77;;;3.62;71.25
43681;BME280;29281;50.356;30.894;2023-02-11T07:47:10;101186.70;;;3.65;71.23
43681;BME280;29281;50.356;30.894;2023-02-11T07:48:14;101195.87;;;3.82;70.60
43681;BME280;29281;50.356;30.894;2023-02-11T07:49:17;101195.78;;;3.87;70.17
43681;BME280;29281;50.356;30.894;2023-02-11T07:50:20;101193.75;;;3.63;71.35
43681;BME280;29281;50.356;30.894;2023-02-11T07:51:25;101194.42;;;3.71;71.06
43681;BME280;29281;50.356;30.894;2023-02-11T07:52:30;101186.97;;;3.52;71.81
43681;BME280;29281;50.356;30.894;2023-02-11T07:53:33;101190.99;;;3.67;71.33
43681;BME280;29281;50.356;30.894;2023-02-11T07:54:37;101189.81;;;3.43;72.00
43681;BME280;29281;50.356;30.894;2023-02-11T07:55:41;101190.95;;;3.69;71.71
43681;BME280;29281;50.356;30.894;2023-02-11T07:56:44;101189.55;;;3.91;70.74
43681;BME280;29281;50.356;30.894;2023-02-11T07:57:48;101193.24;;;4.18;69.84
43681;BME280;29281;50.356;30.894;2023-02-11T07:58:53;101202.27;;;4.08;69.21
43681;BME280;29281;50.356;30.894;2023-02-11T07:59:59;101204.52;;;3.87;69.72
43681;BME280;29281;50.356;30.894;2023-02-11T08:01:05;101187.50;;;3.67;70.51
43681;BME280;29281;50.356;30.894;2023-02-11T08:02:09;101194.88;;;3.88;70.22
43681;BME280;29281;50.356;30.894;2023-02-11T08:03:12;101189.39;;;3.62;71.08
43681;BME280;29281;50.356;30.894;2023-02-11T08:04:16;101184.41;;;3.51;71.56
43681;BME280;29281;50.356;30.894;2023-02-11T08:05:18;101185.37;;;3.47;71.66
43681;BME280;29281;50.356;30.894;2023-02-11T08:06:24;101185.46;;;3.42;71.84
43681;BME280;29281;50.356;30.894;2023-02-11T08:07:28;101183.30;;;3.21;72.59
43681;BME280;29281;50.356;30.894;2023-02-11T08:08:32;101176.78;;;3.00;74.09
43681;BME280;29281;50.356;30.894;2023-02-11T08:09:37;101177.53;;;2.64;75.46
43681;BME280;29281;50.356;30.894;2023-02-11T08:10:40;101175.73;;;2.66;76.26
43681;BME280;29281;50.356;30.894;2023-02-11T08:11:45;101171.47;;;2.60;76.66
43681;BME280;29281;50.356;30.894;2023-02-11T08:12:50;101173.45;;;2.49;77.33
43681;BME280;29281;50.356;30.894;2023-02-11T08:13:54;101164.30;;;2.70;77.54
43681;BME280;29281;50.356;30.894;2023-02-11T08:14:59;101164.39;;;2.65;76.96
43681;BME280;29281;50.356;30.894;2023-02-11T08:16:02;101166.64;;;2.40;77.70
43681;BME280;29281;50.356;30.894;2023-02-11T08:17:06;101154.98;;;2.55;78.43
43681;BME280;29281;50.356;30.894;2023-02-11T08:18:09;101151.91;;;2.76;77.86
43681;BME280;29281;50.356;30.894;2023-02-11T08:19:16;101153.73;;;2.74;77.88
43681;BME280;29281;50.356;30.894;2023-02-11T08:20:19;101131.41;;;2.54;78.13
43681;BME280;29281;50.356;30.894;2023-02-11T08:21:22;101135.84;;;2.50;78.63
43681;BME280;29281;50.356;30.894;2023-02-11T08:22:32;101132.28;;;2.54;78.49
43681;BME280;29281;50.356;30.894;2023-02-11T08:23:41;101139.33;;;2.92;77.55
43681;BME280;29281;50.356;30.894;2023-02-11T08:24:45;101134.64;;;2.66;78.43
43681;BME280;29281;50.356;30.894;2023-02-11T08:25:47;101131.55;;;2.89;78.27
43681;BME280;29281;50.356;30.894;2023-02-11T08:26:51;101137.58;;;2.93;77.71
43681;BME280;29281;50.356;30.894;2023-02-11T08:27:56;101132.83;;;2.70;79.60
43681;BME280;29281;50.356;30.894;2023-02-11T08:28:59;101138.62;;;2.86;78.59
43681;BME280;29281;50.356;30.894;2023-02-11T08:30:03;101127.98;;;2.50;80.14
43681;BME280;29281;50.356;30.894;2023-02-11T08:31:14;101120.95;;;2.52;80.53
43681;BME280;29281;50.356;30.894;2023-02-11T08:32:13;101126.00;;;2.61;80.44
43681;BME280;29281;50.356;30.894;2023-02-11T08:33:16;101123.55;;;2.54;80.76
43681;BME280;29281;50.356;30.894;2023-02-11T08:34:20;101118.97;;;2.63;80.39
43681;BME280;29281;50.356;30.894;2023-02-11T08:35:24;101118.94;;;2.65;81.10
43681;BME280;29281;50.356;30.894;2023-02-11T08:36:28;101116.52;;;2.96;79.70
43681;BME280;29281;50.356;30.894;2023-02-11T08:37:31;101119.34;;;3.25;78.45
43681;BME280;29281;50.356;30.894;2023-02-11T08:38:35;101112.63;;;3.50;77.62
43681;BME280;29281;50.356;30.894;2023-02-11T08:39:39;101115.06;;;3.58;76.50
43681;BME280;29281;50.356;30.894;2023-02-11T08:40:41;101115.80;;;3.28;77.05
43681;BME280;29281;50.356;30.894;2023-02-11T08:41:49;101111.50;;;3.24;77.53
43681;BME280;29281;50.356;30.894;2023-02-11T08:42:52;101110.51;;;3.29;77.22
43681;BME280;29281;50.356;30.894;2023-02-11T08:43:55;101112.08;;;3.36;77.13
43681;BME280;29281;50.356;30.894;2023-02-11T08:45:00;101106.90;;;3.69;76.27
43681;BME280;29281;50.356;30.894;2023-02-11T08:46:05;101103.25;;;4.08;74.98
43681;BME280;29281;50.356;30.894;2023-02-11T08:47:09;101102.84;;;4.23;73.23
43681;BME280;29281;50.356;30.894;2023-02-11T08:48:13;101108.17;;;4.20;73.19
43681;BME280;29281;50.356;30.894;2023-02-11T08:49:16;101105.39;;;4.57;72.34
43681;BME280;29281;50.356;30.894;2023-02-11T08:50:21;101104.04;;;4.12;72.34
43681;BME280;29281;50.356;30.894;2023-02-11T08:51:25;101098.08;;;4.05;73.62
43681;BME280;29281;50.356;30.894;2023-02-11T08:52:36;101099.48;;;3.84;74.33
43681;BME280;29281;50.356;30.894;2023-02-11T08:53:39;101099.90;;;4.34;73.74
43681;BME280;29281;50.356;30.894;2023-02-11T08:54:42;101109.00;;;4.53;71.66
43681;BME280;29281;50.356;30.894;2023-02-11T08:55:50;101102.22;;;4.45;72.24
43681;BME280;29281;50.356;30.894;2023-02-11T08:56:54;101099.82;;;4.37;71.97
43681;BME280;29281;50.356;30.894;2023-02-11T08:57:59;101103.86;;;4.49;72.24
43681;BME280;29281;50.356;30.894;2023-02-11T08:59:03;101112.67;;;4.77;71.38
43681;BME280;29281;50.356;30.894;2023-02-11T09:00:08;101110.05;;;4.77;70.70
43681;BME280;29281;50.356;30.894;2023-02-11T09:01:17;101099.02;;;4.65;71.06
43681;BME280;29281;50.356;30.894;2023-02-11T09:02:23;101106.77;;;4.40;71.78
43681;BME280;29281;50.356;30.894;2023-02-11T09:03:27;101098.00;;;4.08;73.63
43681;BME280;29281;50.356;30.894;2023-02-11T09:04:31;101100.73;;;4.04;74.27
43681;BME280;29281;50.356;30.894;2023-02-11T09:05:39;101103.89;;;4.16;73.84
43681;BME280;29281;50.356;30.894;2023-02-11T09:06:39;101106.52;;;4.16;73.37
43681;BME280;29281;50.356;30.894;2023-02-11T09:07:43;101094.45;;;3.77;75.77
43681;BME280;29281;50.356;30.894;2023-02-11T09:08:46;101089.02;;;3.83;76.29